Spring Valley, CA

3:50 AM PDT on March 24, 2017 (GMT -0700)
Mt Helix | | Change Station

Elev 0 ft 32.76 °N, 117.00 °W | Updated 25 seconds ago

Clear
Clear
45.0 °F
Feels Like 45 °F
N
0.0
Wind Variable Wind from West

Today
High -- | Low -- °F
--% Chance of Precip.
Yesterday
High -- | Low -- °F
Precip. -- in
Pressure 30.23 in
Visibility 10.0 miles
Clouds Scattered Clouds 3500 ft
Scattered Clouds 4100 ft
Windchill 45 °F
Dew Point 45 °F
Humidity 99%
Rainfall 0.26 in
Snow Depth Not available.
6:45 AM 7:02 PM
Waning Crescent, 16% visible
METAR KSEE 241035Z AUTO 00000KT 10SM SCT035 SCT041 08/06 A3023 RMK AO2
Pressure 30.23 in
Visibility 10.0 miles
Clouds Scattered Clouds 3500 ft
Scattered Clouds 4100 ft
Windchill 45 °F
Dew Point 45 °F
Humidity 99%
Rainfall 0.26 in
Snow Depth Not available.
6:45 AM 7:02 PM
Waning Crescent, 16% visible
METAR KSEE 241035Z AUTO 00000KT 10SM SCT035 SCT041 08/06 A3023 RMK AO2

Get Severe Weather Alerts

Thanks for signing up!

Be on the lookout for a verification email in your inbox.

You'll start receiving the daily forecast at 8 AM.

×

10-Day Weather Forecast

Almanac

Astronomy

Mar. 24, 2017 Rise Set
Actual Time
Civil Twilight
Nautical Twilight
Astronomical Twilight
Moon
Length of Visible Light
Length of Day
Tomorrow will be .
, % of the Moon is Illuminated

Today's Extremes

State Highs State Lows

Community

WunderPhotos

Upload Photos

1,962,540 photos uploaded!

WunderBlog® & News

Nearby

Air Quality

  Air Quality AQ Index Pollutant
Not available.

Snow Depth

Station Depth Elevation

Earthquake Activity

City Distance Mag. Time & Date
Minimum magnitude displayed is 2.5.

Earthquake Activity

City Distance Mag. Time & Date
Minimum magnitude displayed is 2.5.

Coastal Water Temperatures

Place Temperature

Stations

Nearby Weather Stations

Station Location Temp. Windchill Dew Point Humidity Wind Precip. Elev Updated Type
                   

Watches & Warnings

There are currently no watches in effect.